sensor_id;sensor_type;location;lat;lon;timestamp;temperature;humidity
7762;DHT22;3925;48.636;9.516;2023-05-10T00:00:24;14.60;99.90
7762;DHT22;3925;48.636;9.516;2023-05-10T00:02:51;14.70;99.90
7762;DHT22;3925;48.636;9.516;2023-05-10T00:05:17;14.60;99.90
7762;DHT22;3925;48.636;9.516;2023-05-10T00:07:44;14.60;99.90
7762;DHT22;3925;48.636;9.516;2023-05-10T00:10:12;14.60;99.90
7762;DHT22;3925;48.636;9.516;2023-05-10T00:12:39;14.60;99.90
7762;DHT22;3925;48.636;9.516;2023-05-10T00:15:07;14.60;99.90
7762;DHT22;3925;48.636;9.516;2023-05-10T00:17:34;14.60;99.90
7762;DHT22;3925;48.636;9.516;2023-05-10T00:20:01;14.50;99.90
7762;DHT22;3925;48.636;9.516;2023-05-10T00:22:30;14.50;99.90
7762;DHT22;3925;48.636;9.516;2023-05-10T00:24:57;14.40;99.90
7762;DHT22;3925;48.636;9.516;2023-05-10T00:27:25;14.50;99.90
7762;DHT22;3925;48.636;9.516;2023-05-10T00:29:52;14.30;99.90
7762;DHT22;3925;48.636;9.516;2023-05-10T00:32:19;14.50;99.90
7762;DHT22;3925;48.636;9.516;2023-05-10T00:34:45;14.40;99.90
7762;DHT22;3925;48.636;9.516;2023-05-10T00:37:12;14.50;99.90
7762;DHT22;3925;48.636;9.516;2023-05-10T00:39:39;14.30;99.90
7762;DHT22;3925;48.636;9.516;2023-05-10T00:42:06;14.30;99.90
7762;DHT22;3925;48.636;9.516;2023-05-10T00:44:34;14.30;99.90
7762;DHT22;3925;48.636;9.516;2023-05-10T00:47:01;14.40;99.90
7762;DHT22;3925;48.636;9.516;2023-05-10T00:49:28;14.40;99.90
7762;DHT22;3925;48.636;9.516;2023-05-10T00:51:55;14.40;99.90
7762;DHT22;3925;48.636;9.516;2023-05-10T00:54:22;14.30;99.90
7762;DHT22;3925;48.636;9.516;2023-05-10T00:56:49;14.40;99.90
7762;DHT22;3925;48.636;9.516;2023-05-10T00:59:16;14.40;99.90
7762;DHT22;3925;48.636;9.516;2023-05-10T01:01:45;14.20;99.90
7762;DHT22;3925;48.636;9.516;2023-05-10T01:04:13;14.20;99.90
7762;DHT22;3925;48.636;9.516;2023-05-10T01:06:40;14.10;99.90
7762;DHT22;3925;48.636;9.516;2023-05-10T01:09:07;14.10;99.90
7762;DHT22;3925;48.636;9.516;2023-05-10T01:11:35;14.10;99.90
7762;DHT22;3925;48.636;9.516;2023-05-10T01:14:02;14.00;99.90
7762;DHT22;3925;48.636;9.516;2023-05-10T01:16:31;14.00;99.90
7762;DHT22;3925;48.636;9.516;2023-05-10T01:19:00;14.00;99.90
7762;DHT22;3925;48.636;9.516;2023-05-10T01:21:31;14.10;99.90
7762;DHT22;3925;48.636;9.516;2023-05-10T01:24:14;14.10;99.90
7762;DHT22;3925;48.636;9.516;2023-05-10T01:27:08;14.00;99.90
7762;DHT22;3925;48.636;9.516;2023-05-10T01:30:01;14.00;99.90
7762;DHT22;3925;48.636;9.516;2023-05-10T01:32:36;14.00;99.90
7762;DHT22;3925;48.636;9.516;2023-05-10T01:35:10;14.00;99.90
7762;DHT22;3925;48.636;9.516;2023-05-10T01:37:46;13.90;99.90
7762;DHT22;3925;48.636;9.516;2023-05-10T01:40:19;13.90;99.90
7762;DHT22;3925;48.636;9.516;2023-05-10T01:42:51;13.90;99.90
7762;DHT22;3925;48.636;9.516;2023-05-10T01:45:24;14.00;99.90
7762;DHT22;3925;48.636;9.516;2023-05-10T01:48:02;14.00;99.90
7762;DHT22;3925;48.636;9.516;2023-05-10T01:50:31;14.00;99.90
7762;DHT22;3925;48.636;9.516;2023-05-10T01:53:00;14.00;99.90
7762;DHT22;3925;48.636;9.516;2023-05-10T01:55:30;14.10;99.90
7762;DHT22;3925;48.636;9.516;2023-05-10T01:58:02;14.00;99.90
7762;DHT22;3925;48.636;9.516;2023-05-10T02:00:29;14.00;99.90
7762;DHT22;3925;48.636;9.516;2023-05-10T02:03:00;14.00;99.90
7762;DHT22;3925;48.636;9.516;2023-05-10T02:05:30;14.00;99.90
7762;DHT22;3925;48.636;9.516;2023-05-10T02:07:59;14.00;99.90
7762;DHT22;3925;48.636;9.516;2023-05-10T02:10:28;14.00;99.90
7762;DHT22;3925;48.636;9.516;2023-05-10T02:12:58;13.80;99.90
7762;DHT22;3925;48.636;9.516;2023-05-10T02:15:26;13.80;99.90
7762;DHT22;3925;48.636;9.516;2023-05-10T02:17:55;13.80;99.90
7762;DHT22;3925;48.636;9.516;2023-05-10T02:20:25;13.80;99.90
7762;DHT22;3925;48.636;9.516;2023-05-10T02:22:54;13.90;99.90
7762;DHT22;3925;48.636;9.516;2023-05-10T02:25:23;13.80;99.90
7762;DHT22;3925;48.636;9.516;2023-05-10T02:27:51;13.90;99.90
7762;DHT22;3925;48.636;9.516;2023-05-10T02:30:20;13.90;99.90
7762;DHT22;3925;48.636;9.516;2023-05-10T02:32:49;13.90;99.90
7762;DHT22;3925;48.636;9.516;2023-05-10T02:35:16;13.90;99.90
7762;DHT22;3925;48.636;9.516;2023-05-10T02:37:45;13.80;99.90
7762;DHT22;3925;48.636;9.516;2023-05-10T02:40:15;13.80;99.90
7762;DHT22;3925;48.636;9.516;2023-05-10T02:42:44;13.90;99.90
7762;DHT22;3925;48.636;9.516;2023-05-10T02:45:13;13.90;99.90
7762;DHT22;3925;48.636;9.516;2023-05-10T02:47:41;13.90;99.90
7762;DHT22;3925;48.636;9.516;2023-05-10T02:50:09;13.90;99.90
7762;DHT22;3925;48.636;9.516;2023-05-10T02:52:40;13.90;99.90
7762;DHT22;3925;48.636;9.516;2023-05-10T02:55:13;13.90;99.90
7762;DHT22;3925;48.636;9.516;2023-05-10T02:57:45;13.80;99.90
7762;DHT22;3925;48.636;9.516;2023-05-10T03:00:15;13.80;99.90
7762;DHT22;3925;48.636;9.516;2023-05-10T03:02:42;13.70;99.90
7762;DHT22;3925;48.636;9.516;2023-05-10T03:05:08;13.70;99.90
7762;DHT22;3925;48.636;9.516;2023-05-10T03:07:35;13.70;99.90
7762;DHT22;3925;48.636;9.516;2023-05-10T03:10:03;13.70;99.90
7762;DHT22;3925;48.636;9.516;2023-05-10T03:12:41;13.60;99.90
7762;DHT22;3925;48.636;9.516;2023-05-10T03:15:17;13.60;99.90
7762;DHT22;3925;48.636;9.516;2023-05-10T03:17:48;13.50;99.90
7762;DHT22;3925;48.636;9.516;2023-05-10T03:20:22;13.50;99.90
7762;DHT22;3925;48.636;9.516;2023-05-10T03:22:55;13.50;99.90
7762;DHT22;3925;48.636;9.516;2023-05-10T03:25:23;13.50;99.90
7762;DHT22;3925;48.636;9.516;2023-05-10T03:27:52;13.40;99.90
7762;DHT22;3925;48.636;9.516;2023-05-10T03:30:19;13.40;99.90
7762;DHT22;3925;48.636;9.516;2023-05-10T03:32:46;13.40;99.90
7762;DHT22;3925;48.636;9.516;2023-05-10T03:35:13;13.30;99.90
7762;DHT22;3925;48.636;9.516;2023-05-10T03:37:40;13.20;99.90
7762;DHT22;3925;48.636;9.516;2023-05-10T03:40:08;13.30;99.90
7762;DHT22;3925;48.636;9.516;2023-05-10T03:42:35;13.30;99.90
7762;DHT22;3925;48.636;9.516;2023-05-10T03:45:03;13.40;99.90
7762;DHT22;3925;48.636;9.516;2023-05-10T03:47:30;13.30;99.90
7762;DHT22;3925;48.636;9.516;2023-05-10T03:49:57;13.40;99.90
7762;DHT22;3925;48.636;9.516;2023-05-10T03:52:24;13.30;99.90
7762;DHT22;3925;48.636;9.516;2023-05-10T03:54:51;13.40;99.90
7762;DHT22;3925;48.636;9.516;2023-05-10T03:57:18;13.30;99.90
7762;DHT22;3925;48.636;9.516;2023-05-10T03:59:45;13.30;99.90
7762;DHT22;3925;48.636;9.516;2023-05-10T04:02:13;13.40;99.90
7762;DHT22;3925;48.636;9.516;2023-05-10T04:04:40;13.40;99.90
7762;DHT22;3925;48.636;9.516;2023-05-10T04:07:07;13.40;99.90
7762;DHT22;3925;48.636;9.516;2023-05-10T04:09:35;13.40;99.90
7762;DHT22;3925;48.636;9.516;2023-05-10T04:12:02;13.40;99.90
7762;DHT22;3925;48.636;9.516;2023-05-10T04:14:29;13.50;99.90
7762;DHT22;3925;48.636;9.516;2023-05-10T04:16:56;13.40;99.90
7762;DHT22;3925;48.636;9.516;2023-05-10T04:19:28;13.40;99.90
7762;DHT22;3925;48.636;9.516;2023-05-10T04:21:55;13.40;99.90
7762;DHT22;3925;48.636;9.516;2023-05-10T04:24:21;13.40;99.90
7762;DHT22;3925;48.636;9.516;2023-05-10T04:26:48;13.40;99.90
7762;DHT22;3925;48.636;9.516;2023-05-10T04:29:15;13.40;99.90
7762;DHT22;3925;48.636;9.516;2023-05-10T04:31:42;13.50;99.90
7762;DHT22;3925;48.636;9.516;2023-05-10T04:34:09;13.50;99.90
7762;DHT22;3925;48.636;9.516;2023-05-10T04:36:37;13.50;99.90
7762;DHT22;3925;48.636;9.516;2023-05-10T04:39:04;13.60;99.90
7762;DHT22;3925;48.636;9.516;2023-05-10T04:41:31;13.60;99.90
7762;DHT22;3925;48.636;9.516;2023-05-10T04:43:58;13.50;99.90
7762;DHT22;3925;48.636;9.516;2023-05-10T04:46:25;13.60;99.90
7762;DHT22;3925;48.636;9.516;2023-05-10T04:48:51;13.60;99.90
7762;DHT22;3925;48.636;9.516;2023-05-10T04:51:19;13.60;99.90
7762;DHT22;3925;48.636;9.516;2023-05-10T04:53:48;13.70;99.90
7762;DHT22;3925;48.636;9.516;2023-05-10T04:56:15;13.70;99.90
7762;DHT22;3925;48.636;9.516;2023-05-10T04:58:43;13.70;99.90
7762;DHT22;3925;48.636;9.516;2023-05-10T05:01:10;13.70;99.90
7762;DHT22;3925;48.636;9.516;2023-05-10T05:03:36;13.80;99.90
7762;DHT22;3925;48.636;9.516;2023-05-10T05:06:04;13.90;99.90
7762;DHT22;3925;48.636;9.516;2023-05-10T05:08:30;13.90;99.90
7762;DHT22;3925;48.636;9.516;2023-05-10T05:10:59;13.80;99.90
7762;DHT22;3925;48.636;9.516;2023-05-10T05:13:25;13.80;99.90
7762;DHT22;3925;48.636;9.516;2023-05-10T05:15:52;13.70;99.90
7762;DHT22;3925;48.636;9.516;2023-05-10T05:18:20;13.80;99.90
7762;DHT22;3925;48.636;9.516;2023-05-10T05:20:46;13.90;99.90
7762;DHT22;3925;48.636;9.516;2023-05-10T05:23:13;14.00;99.90
7762;DHT22;3925;48.636;9.516;2023-05-10T05:25:40;14.00;99.90
7762;DHT22;3925;48.636;9.516;2023-05-10T05:28:08;14.00;99.90
7762;DHT22;3925;48.636;9.516;2023-05-10T05:30:35;14.00;99.90
7762;DHT22;3925;48.636;9.516;2023-05-10T05:33:02;14.00;99.90
7762;DHT22;3925;48.636;9.516;2023-05-10T05:35:29;14.00;99.90
7762;DHT22;3925;48.636;9.516;2023-05-10T05:37:56;14.00;99.90
7762;DHT22;3925;48.636;9.516;2023-05-10T05:40:22;14.20;99.90
7762;DHT22;3925;48.636;9.516;2023-05-10T05:42:49;14.40;99.90
7762;DHT22;3925;48.636;9.516;2023-05-10T05:45:18;14.50;99.90
7762;DHT22;3925;48.636;9.516;2023-05-10T05:47:47;14.70;99.90
7762;DHT22;3925;48.636;9.516;2023-05-10T05:50:14;14.70;99.90
7762;DHT22;3925;48.636;9.516;2023-05-10T05:52:40;14.70;99.90
7762;DHT22;3925;48.636;9.516;2023-05-10T05:55:07;14.70;99.90
7762;DHT22;3925;48.636;9.516;2023-05-10T05:57:34;14.60;99.90
7762;DHT22;3925;48.636;9.516;2023-05-10T06:00:01;14.50;99.90
7762;DHT22;3925;48.636;9.516;2023-05-10T06:02:30;14.40;99.90
7762;DHT22;3925;48.636;9.516;2023-05-10T06:04:57;14.30;99.90
7762;DHT22;3925;48.636;9.516;2023-05-10T06:07:23;14.30;99.90
7762;DHT22;3925;48.636;9.516;2023-05-10T06:09:50;14.30;99.90
7762;DHT22;3925;48.636;9.516;2023-05-10T06:12:17;14.30;99.90
7762;DHT22;3925;48.636;9.516;2023-05-10T06:14:44;14.20;99.90
7762;DHT22;3925;48.636;9.516;2023-05-10T06:17:11;14.30;99.90
7762;DHT22;3925;48.636;9.516;2023-05-10T06:19:39;14.20;99.90
7762;DHT22;3925;48.636;9.516;2023-05-10T06:22:06;14.20;99.90
7762;DHT22;3925;48.636;9.516;2023-05-10T06:24:32;14.10;99.90
7762;DHT22;3925;48.636;9.516;2023-05-10T06:26:59;14.20;99.90
7762;DHT22;3925;48.636;9.516;2023-05-10T06:29:27;14.30;99.90
7762;DHT22;3925;48.636;9.516;2023-05-10T06:31:54;14.20;99.90
7762;DHT22;3925;48.636;9.516;2023-05-10T06:34:21;14.30;99.90
7762;DHT22;3925;48.636;9.516;2023-05-10T06:36:49;14.50;99.90
7762;DHT22;3925;48.636;9.516;2023-05-10T06:39:17;14.60;99.90
7762;DHT22;3925;48.636;9.516;2023-05-10T06:41:44;14.80;99.90
7762;DHT22;3925;48.636;9.516;2023-05-10T06:44:10;14.80;99.90
7762;DHT22;3925;48.636;9.516;2023-05-10T06:46:38;14.90;99.90
7762;DHT22;3925;48.636;9.516;2023-05-10T06:49:05;15.00;99.90
7762;DHT22;3925;48.636;9.516;2023-05-10T06:51:32;15.30;99.90
7762;DHT22;3925;48.636;9.516;2023-05-10T06:54:00;15.30;99.90
7762;DHT22;3925;48.636;9.516;2023-05-10T06:56:27;15.30;99.90
7762;DHT22;3925;48.636;9.516;2023-05-10T06:58:54;15.30;99.90
7762;DHT22;3925;48.636;9.516;2023-05-10T07:01:21;15.30;99.90
7762;DHT22;3925;48.636;9.516;2023-05-10T07:03:48;15.40;99.90
7762;DHT22;3925;48.636;9.516;2023-05-10T07:06:14;15.20;99.90
7762;DHT22;3925;48.636;9.516;2023-05-10T07:08:41;15.20;99.90
7762;DHT22;3925;48.636;9.516;2023-05-10T07:11:09;15.30;99.90
7762;DHT22;3925;48.636;9.516;2023-05-10T07:13:36;15.40;99.90
7762;DHT22;3925;48.636;9.516;2023-05-10T07:16:04;15.30;99.90
7762;DHT22;3925;48.636;9.516;2023-05-10T07:18:32;15.10;99.90
7762;DHT22;3925;48.636;9.516;2023-05-10T07:20:59;14.80;99.90
7762;DHT22;3925;48.636;9.516;2023-05-10T07:23:25;14.70;99.90
7762;DHT22;3925;48.636;9.516;2023-05-10T07:25:52;14.80;99.90
7762;DHT22;3925;48.636;9.516;2023-05-10T07:28:21;14.90;99.90
7762;DHT22;3925;48.636;9.516;2023-05-10T07:30:48;15.00;99.90
7762;DHT22;3925;48.636;9.516;2023-05-10T07:33:15;15.10;99.90
7762;DHT22;3925;48.636;9.516;2023-05-10T07:35:42;15.10;99.90
7762;DHT22;3925;48.636;9.516;2023-05-10T07:38:09;15.00;99.90
7762;DHT22;3925;48.636;9.516;2023-05-10T07:40:37;15.00;99.90
7762;DHT22;3925;48.636;9.516;2023-05-10T07:43:04;14.80;99.90
7762;DHT22;3925;48.636;9.516;2023-05-10T07:45:33;14.80;99.90
7762;DHT22;3925;48.636;9.516;2023-05-10T07:48:00;15.00;99.90
7762;DHT22;3925;48.636;9.516;2023-05-10T07:50:27;15.00;99.90
7762;DHT22;3925;48.636;9.516;2023-05-10T07:52:54;15.00;99.90
7762;DHT22;3925;48.636;9.516;2023-05-10T07:55:21;15.20;99.90
7762;DHT22;3925;48.636;9.516;2023-05-10T07:57:47;15.40;99.90
7762;DHT22;3925;48.636;9.516;2023-05-10T08:00:18;15.20;99.90
7762;DHT22;3925;48.636;9.516;2023-05-10T08:02:47;15.50;99.90
7762;DHT22;3925;48.636;9.516;2023-05-10T08:05:15;15.70;99.90
7762;DHT22;3925;48.636;9.516;2023-05-10T08:07:42;16.00;99.90
7762;DHT22;3925;48.636;9.516;2023-05-10T08:10:09;15.90;99.90
7762;DHT22;3925;48.636;9.516;2023-05-10T08:12:37;16.10;99.90
7762;DHT22;3925;48.636;9.516;2023-05-10T08:15:05;16.20;99.90
7762;DHT22;3925;48.636;9.516;2023-05-10T08:17:32;16.50;99.90
7762;DHT22;3925;48.636;9.516;2023-05-10T08:20:00;16.60;99.90
7762;DHT22;3925;48.636;9.516;2023-05-10T08:22:28;17.00;99.90
7762;DHT22;3925;48.636;9.516;2023-05-10T08:24:54;17.10;99.90
7762;DHT22;3925;48.636;9.516;2023-05-10T08:27:21;17.00;99.90
7762;DHT22;3925;48.636;9.516;2023-05-10T08:29:48;17.20;99.90
7762;DHT22;3925;48.636;9.516;2023-05-10T08:32:15;17.30;99.90
7762;DHT22;3925;48.636;9.516;2023-05-10T08:34:42;17.40;99.90
7762;DHT22;3925;48.636;9.516;2023-05-10T08:37:10;17.40;99.90
7762;DHT22;3925;48.636;9.516;2023-05-10T08:39:38;17.60;99.90
7762;DHT22;3925;48.636;9.516;2023-05-10T08:42:06;17.20;99.90
7762;DHT22;3925;48.636;9.516;2023-05-10T08:44:35;17.20;99.90
7762;DHT22;3925;48.636;9.516;2023-05-10T08:47:04;17.40;99.90
7762;DHT22;3925;48.636;9.516;2023-05-10T08:49:32;17.10;99.90
7762;DHT22;3925;48.636;9.516;2023-05-10T08:52:02;17.20;99.90
7762;DHT22;3925;48.636;9.516;2023-05-10T08:54:33;17.70;99.90
7762;DHT22;3925;48.636;9.516;2023-05-10T08:57:00;17.70;99.90
7762;DHT22;3925;48.636;9.516;2023-05-10T08:59:27;18.00;99.90
7762;DHT22;3925;48.636;9.516;2023-05-10T09:01:56;18.00;99.90
7762;DHT22;3925;48.636;9.516;2023-05-10T09:04:24;18.00;99.90
7762;DHT22;3925;48.636;9.516;2023-05-10T09:06:51;17.90;99.90
7762;DHT22;3925;48.636;9.516;2023-05-10T09:09:18;17.90;99.90
7762;DHT22;3925;48.636;9.516;2023-05-10T09:11:47;17.70;99.90
7762;DHT22;3925;48.636;9.516;2023-05-10T09:14:15;17.90;99.90
7762;DHT22;3925;48.636;9.516;2023-05-10T09:16:42;18.10;99.90
7762;DHT22;3925;48.636;9.516;2023-05-10T09:19:09;18.50;99.90
7762;DHT22;3925;48.636;9.516;2023-05-10T09:21:36;18.40;99.90
7762;DHT22;3925;48.636;9.516;2023-05-10T09:24:04;18.40;99.90
7762;DHT22;3925;48.636;9.516;2023-05-10T09:26:31;18.00;99.90
7762;DHT22;3925;48.636;9.516;2023-05-10T09:29:00;18.50;99.90
7762;DHT22;3925;48.636;9.516;2023-05-10T09:31:44;18.50;99.90
7762;DHT22;3925;48.636;9.516;2023-05-10T09:34:15;18.60;99.90
7762;DHT22;3925;48.636;9.516;2023-05-10T09:36:53;18.70;99.90
7762;DHT22;3925;48.636;9.516;2023-05-10T09:39:20;19.00;99.90
7762;DHT22;3925;48.636;9.516;2023-05-10T09:41:47;19.60;99.90
7762;DHT22;3925;48.636;9.516;2023-05-10T09:44:18;20.10;99.90
7762;DHT22;3925;48.636;9.516;2023-05-10T09:46:49;20.60;99.90
7762;DHT22;3925;48.636;9.516;2023-05-10T09:49:17;20.60;99.90
7762;DHT22;3925;48.636;9.516;2023-05-10T09:51:43;20.80;99.90
7762;DHT22;3925;48.636;9.516;2023-05-10T09:54:11;20.40;99.90
7762;DHT22;3925;48.636;9.516;2023-05-10T09:56:39;20.40;99.90
7762;DHT22;3925;48.636;9.516;2023-05-10T09:59:11;20.40;99.90
7762;DHT22;3925;48.636;9.516;2023-05-10T10:01:40;20.60;99.90
7762;DHT22;3925;48.636;9.516;2023-05-10T10:04:09;20.50;99.90
7762;DHT22;3925;48.636;9.516;2023-05-10T10:06:37;20.80;99.90
7762;DHT22;3925;48.636;9.516;2023-05-10T10:09:04;20.70;99.90
7762;DHT22;3925;48.636;9.516;2023-05-10T10:11:32;21.10;99.90
7762;DHT22;3925;48.636;9.516;2023-05-10T10:13:59;20.90;99.90
7762;DHT22;3925;48.636;9.516;2023-05-10T10:16:27;20.60;99.90
7762;DHT22;3925;48.636;9.516;2023-05-10T10:18:56;21.00;99.90
7762;DHT22;3925;48.636;9.516;2023-05-10T10:21:24;21.20;99.90
7762;DHT22;3925;48.636;9.516;2023-05-10T10:23:51;21.30;99.90
7762;DHT22;3925;48.636;9.516;2023-05-10T10:26:18;21.20;99.90
7762;DHT22;3925;48.636;9.516;2023-05-10T10:28:51;20.90;99.90
7762;DHT22;3925;48.636;9.516;2023-05-10T10:31:26;20.80;99.90
7762;DHT22;3925;48.636;9.516;2023-05-10T10:34:05;20.00;99.90
7762;DHT22;3925;48.636;9.516;2023-05-10T10:36:33;19.50;99.90
7762;DHT22;3925;48.636;9.516;2023-05-10T10:39:09;19.30;99.90
7762;DHT22;3925;48.636;9.516;2023-05-10T10:41:38;18.80;99.90
7762;DHT22;3925;48.636;9.516;2023-05-10T10:44:26;18.50;99.90
7762;DHT22;3925;48.636;9.516;2023-05-10T10:47:02;18.50;99.90
7762;DHT22;3925;48.636;9.516;2023-05-10T10:49:33;18.40;99.90
7762;DHT22;3925;48.636;9.516;2023-05-10T10:52:20;18.40;99.90
7762;DHT22;3925;48.636;9.516;2023-05-10T10:54:51;18.30;99.90
7762;DHT22;3925;48.636;9.516;2023-05-10T10:57:19;18.20;99.90
7762;DHT22;3925;48.636;9.516;2023-05-10T10:59:47;18.20;99.90
7762;DHT22;3925;48.636;9.516;2023-05-10T11:02:33;18.10;99.90
7762;DHT22;3925;48.636;9.516;2023-05-10T11:05:25;18.20;99.90
7762;DHT22;3925;48.636;9.516;2023-05-10T11:07:53;18.60;99.90
7762;DHT22;3925;48.636;9.516;2023-05-10T11:10:20;19.00;99.90
7762;DHT22;3925;48.636;9.516;2023-05-10T11:12:59;19.60;99.90
7762;DHT22;3925;48.636;9.516;2023-05-10T11:15:32;19.80;99.90
7762;DHT22;3925;48.636;9.516;2023-05-10T11:17:59;20.00;99.90
7762;DHT22;3925;48.636;9.516;2023-05-10T11:20:38;20.50;99.90
7762;DHT22;3925;48.636;9.516;2023-05-10T11:23:12;20.00;99.90
7762;DHT22;3925;48.636;9.516;2023-05-10T11:25:42;20.60;99.90
7762;DHT22;3925;48.636;9.516;2023-05-10T11:28:10;20.30;99.90
7762;DHT22;3925;48.636;9.516;2023-05-10T11:30:38;20.70;99.90
7762;DHT22;3925;48.636;9.516;2023-05-10T11:33:05;19.90;99.90
7762;DHT22;3925;48.636;9.516;2023-05-10T11:35:39;18.90;99.90
7762;DHT22;3925;48.636;9.516;2023-05-10T11:38:07;18.20;99.90
7762;DHT22;3925;48.636;9.516;2023-05-10T11:40:34;17.60;99.90
7762;DHT22;3925;48.636;9.516;2023-05-10T11:43:01;17.00;99.90
7762;DHT22;3925;48.636;9.516;2023-05-10T11:45:28;16.50;99.90
7762;DHT22;3925;48.636;9.516;2023-05-10T11:47:57;16.40;99.90
7762;DHT22;3925;48.636;9.516;2023-05-10T11:50:24;16.30;99.90
7762;DHT22;3925;48.636;9.516;2023-05-10T11:52:53;16.20;99.90
7762;DHT22;3925;48.636;9.516;2023-05-10T11:55:20;16.00;99.90
7762;DHT22;3925;48.636;9.516;2023-05-10T11:57:51;15.60;99.90
7762;DHT22;3925;48.636;9.516;2023-05-10T12:00:18;15.20;99.90
7762;DHT22;3925;48.636;9.516;2023-05-10T12:02:45;14.80;99.90
7762;DHT22;3925;48.636;9.516;2023-05-10T12:05:12;14.80;99.90
7762;DHT22;3925;48.636;9.516;2023-05-10T12:07:39;14.70;99.90
7762;DHT22;3925;48.636;9.516;2023-05-10T12:10:09;14.70;99.90
7762;DHT22;3925;48.636;9.516;2023-05-10T12:12:38;14.80;99.90
7762;DHT22;3925;48.636;9.516;2023-05-10T12:15:11;14.80;99.90
7762;DHT22;3925;48.636;9.516;2023-05-10T12:17:38;14.80;99.90
7762;DHT22;3925;48.636;9.516;2023-05-10T12:20:16;14.80;99.90
7762;DHT22;3925;48.636;9.516;2023-05-10T12:22:47;14.70;99.90
7762;DHT22;3925;48.636;9.516;2023-05-10T12:25:17;14.80;99.90
7762;DHT22;3925;48.636;9.516;2023-05-10T12:27:51;14.90;99.90
7762;DHT22;3925;48.636;9.516;2023-05-10T12:30:22;14.70;99.90
7762;DHT22;3925;48.636;9.516;2023-05-10T12:32:49;14.90;99.90
7762;DHT22;3925;48.636;9.516;2023-05-10T12:35:16;15.20;99.90
7762;DHT22;3925;48.636;9.516;2023-05-10T12:37:46;15.10;99.90
7762;DHT22;3925;48.636;9.516;2023-05-10T12:40:13;15.20;99.90
7762;DHT22;3925;48.636;9.516;2023-05-10T12:42:42;15.30;99.90
7762;DHT22;3925;48.636;9.516;2023-05-10T12:45:10;15.60;99.90
7762;DHT22;3925;48.636;9.516;2023-05-10T12:47:38;15.60;99.90
7762;DHT22;3925;48.636;9.516;2023-05-10T12:50:05;15.80;99.90
7762;DHT22;3925;48.636;9.516;2023-05-10T12:52:32;15.40;99.90
7762;DHT22;3925;48.636;9.516;2023-05-10T12:55:00;15.80;99.90
7762;DHT22;3925;48.636;9.516;2023-05-10T12:57:27;16.10;99.90
7762;DHT22;3925;48.636;9.516;2023-05-10T12:59:55;16.40;99.90
7762;DHT22;3925;48.636;9.516;2023-05-10T13:02:22;16.40;99.90
7762;DHT22;3925;48.636;9.516;2023-05-10T13:04:49;16.50;99.90
7762;DHT22;3925;48.636;9.516;2023-05-10T13:07:16;16.80;99.90
7762;DHT22;3925;48.636;9.516;2023-05-10T13:09:43;17.00;99.90
7762;DHT22;3925;48.636;9.516;2023-05-10T13:12:10;16.70;99.90
7762;DHT22;3925;48.636;9.516;2023-05-10T13:14:37;16.80;99.90
7762;DHT22;3925;48.636;9.516;2023-05-10T13:17:07;17.10;99.90
7762;DHT22;3925;48.636;9.516;2023-05-10T13:19:34;17.10;99.90
7762;DHT22;3925;48.636;9.516;2023-05-10T13:22:01;17.00;99.90
7762;DHT22;3925;48.636;9.516;2023-05-10T13:24:27;16.70;99.90
7762;DHT22;3925;48.636;9.516;2023-05-10T13:26:54;17.20;99.90
7762;DHT22;3925;48.636;9.516;2023-05-10T13:29:21;17.40;99.90
7762;DHT22;3925;48.636;9.516;2023-05-10T13:31:48;17.80;99.90
7762;DHT22;3925;48.636;9.516;2023-05-10T13:34:16;17.40;99.90
7762;DHT22;3925;48.636;9.516;2023-05-10T13:36:46;17.40;99.90
7762;DHT22;3925;48.636;9.516;2023-05-10T13:39:12;17.80;99.90
7762;DHT22;3925;48.636;9.516;2023-05-10T13:41:39;17.80;99.90
7762;DHT22;3925;48.636;9.516;2023-05-10T13:44:06;17.80;99.90
7762;DHT22;3925;48.636;9.516;2023-05-10T13:46:33;18.20;99.90
7762;DHT22;3925;48.636;9.516;2023-05-10T13:49:00;18.30;99.90
7762;DHT22;3925;48.636;9.516;2023-05-10T13:51:28;18.80;99.90
7762;DHT22;3925;48.636;9.516;2023-05-10T13:53:57;18.90;99.90
7762;DHT22;3925;48.636;9.516;2023-05-10T13:56:24;18.80;99.90
7762;DHT22;3925;48.636;9.516;2023-05-10T13:58:50;19.00;99.90
7762;DHT22;3925;48.636;9.516;2023-05-10T14:01:17;18.80;99.90
7762;DHT22;3925;48.636;9.516;2023-05-10T14:03:44;18.80;99.90
7762;DHT22;3925;48.636;9.516;2023-05-10T14:06:11;18.50;99.90
7762;DHT22;3925;48.636;9.516;2023-05-10T14:08:39;18.80;99.90
7762;DHT22;3925;48.636;9.516;2023-05-10T14:11:06;19.00;99.90
7762;DHT22;3925;48.636;9.516;2023-05-10T14:13:33;19.20;99.90
7762;DHT22;3925;48.636;9.516;2023-05-10T14:16:00;18.80;99.90
7762;DHT22;3925;48.636;9.516;2023-05-10T14:18:27;19.00;99.90
7762;DHT22;3925;48.636;9.516;2023-05-10T14:20:54;19.30;99.90
7762;DHT22;3925;48.636;9.516;2023-05-10T14:23:22;19.30;99.90
7762;DHT22;3925;48.636;9.516;2023-05-10T14:25:52;19.70;99.90
7762;DHT22;3925;48.636;9.516;2023-05-10T14:28:19;19.20;99.90
7762;DHT22;3925;48.636;9.516;2023-05-10T14:30:46;19.30;99.90
7762;DHT22;3925;48.636;9.516;2023-05-10T14:33:13;19.20;99.90
7762;DHT22;3925;48.636;9.516;2023-05-10T14:35:40;18.70;99.90
7762;DHT22;3925;48.636;9.516;2023-05-10T14:38:07;18.90;99.90
7762;DHT22;3925;48.636;9.516;2023-05-10T14:40:34;18.80;99.90
7762;DHT22;3925;48.636;9.516;2023-05-10T14:43:02;18.80;99.90
7762;DHT22;3925;48.636;9.516;2023-05-10T14:45:30;18.90;99.90
7762;DHT22;3925;48.636;9.516;2023-05-10T14:47:57;18.80;99.90
7762;DHT22;3925;48.636;9.516;2023-05-10T14:50:24;18.70;99.90
7762;DHT22;3925;48.636;9.516;2023-05-10T14:52:51;18.80;99.90
7762;DHT22;3925;48.636;9.516;2023-05-10T14:55:18;18.50;99.90
7762;DHT22;3925;48.636;9.516;2023-05-10T14:57:45;18.20;99.90
7762;DHT22;3925;48.636;9.516;2023-05-10T15:00:17;18.20;99.90
7762;DHT22;3925;48.636;9.516;2023-05-10T15:02:44;18.30;99.90
7762;DHT22;3925;48.636;9.516;2023-05-10T15:05:11;18.10;99.90
7762;DHT22;3925;48.636;9.516;2023-05-10T15:07:38;18.00;99.90
7762;DHT22;3925;48.636;9.516;2023-05-10T15:10:06;17.90;99.90
7762;DHT22;3925;48.636;9.516;2023-05-10T15:12:33;17.90;99.90
7762;DHT22;3925;48.636;9.516;2023-05-10T15:15:00;18.10;99.90
7762;DHT22;3925;48.636;9.516;2023-05-10T15:17:29;18.10;99.90
7762;DHT22;3925;48.636;9.516;2023-05-10T15:19:55;18.20;99.90
7762;DHT22;3925;48.636;9.516;2023-05-10T15:22:22;18.20;99.90
7762;DHT22;3925;48.636;9.516;2023-05-10T15:24:49;18.20;99.90
7762;DHT22;3925;48.636;9.516;2023-05-10T15:27:16;18.30;99.90
7762;DHT22;3925;48.636;9.516;2023-05-10T15:29:43;18.20;99.90
7762;DHT22;3925;48.636;9.516;2023-05-10T15:32:10;18.10;99.90
7762;DHT22;3925;48.636;9.516;2023-05-10T15:34:38;17.90;99.90
7762;DHT22;3925;48.636;9.516;2023-05-10T15:37:05;17.70;99.90
7762;DHT22;3925;48.636;9.516;2023-05-10T15:39:31;17.60;99.90
7762;DHT22;3925;48.636;9.516;2023-05-10T15:41:58;17.70;99.90
7762;DHT22;3925;48.636;9.516;2023-05-10T15:44:27;17.70;99.90
7762;DHT22;3925;48.636;9.516;2023-05-10T15:46:53;17.70;99.90
7762;DHT22;3925;48.636;9.516;2023-05-10T15:49:21;17.70;99.90
7762;DHT22;3925;48.636;9.516;2023-05-10T15:51:49;17.50;99.90
7762;DHT22;3925;48.636;9.516;2023-05-10T15:54:16;17.70;99.90
7762;DHT22;3925;48.636;9.516;2023-05-10T15:56:43;17.60;99.90
7762;DHT22;3925;48.636;9.516;2023-05-10T15:59:10;17.40;99.90
7762;DHT22;3925;48.636;9.516;2023-05-10T16:01:36;17.40;99.90
7762;DHT22;3925;48.636;9.516;2023-05-10T16:04:03;17.50;99.90
7762;DHT22;3925;48.636;9.516;2023-05-10T16:06:30;17.50;99.90
7762;DHT22;3925;48.636;9.516;2023-05-10T16:08:58;17.40;99.90